sensor_id;sensor_type;location;lat;lon;timestamp;P1;durP1;ratioP1;P2;durP2;ratioP2
43801;SDS011;29429;51.074;13.764;2023-08-06T00:02:26;4.53;;;4.13;;
43801;SDS011;29429;51.074;13.764;2023-08-06T00:04:53;4.60;;;4.20;;
43801;SDS011;29429;51.074;13.764;2023-08-06T00:07:20;5.20;;;4.30;;
43801;SDS011;29429;51.074;13.764;2023-08-06T00:09:47;6.05;;;4.55;;
43801;SDS011;29429;51.074;13.764;2023-08-06T00:12:14;5.80;;;4.57;;
43801;SDS011;29429;51.074;13.764;2023-08-06T00:14:41;6.50;;;5.18;;
43801;SDS011;29429;51.074;13.764;2023-08-06T00:17:09;5.15;;;4.00;;
43801;SDS011;29429;51.074;13.764;2023-08-06T00:19:36;5.90;;;5.30;;
43801;SDS011;29429;51.074;13.764;2023-08-06T00:22:03;5.82;;;4.60;;
43801;SDS011;29429;51.074;13.764;2023-08-06T00:24:31;6.45;;;4.65;;
43801;SDS011;29429;51.074;13.764;2023-08-06T00:26:58;5.40;;;4.32;;
43801;SDS011;29429;51.074;13.764;2023-08-06T00:29:25;4.93;;;4.40;;
43801;SDS011;29429;51.074;13.764;2023-08-06T00:31:52;4.68;;;4.28;;
43801;SDS011;29429;51.074;13.764;2023-08-06T00:34:20;8.80;;;5.30;;
43801;SDS011;29429;51.074;13.764;2023-08-06T00:36:47;5.65;;;4.97;;
43801;SDS011;29429;51.074;13.764;2023-08-06T00:39:14;6.72;;;4.55;;
43801;SDS011;29429;51.074;13.764;2023-08-06T00:41:43;7.00;;;5.13;;
43801;SDS011;29429;51.074;13.764;2023-08-06T00:44:10;5.13;;;4.63;;
43801;SDS011;29429;51.074;13.764;2023-08-06T00:46:38;5.82;;;5.03;;
43801;SDS011;29429;51.074;13.764;2023-08-06T00:49:09;5.45;;;4.95;;
43801;SDS011;29429;51.074;13.764;2023-08-06T00:51:36;6.05;;;5.13;;
43801;SDS011;29429;51.074;13.764;2023-08-06T00:54:05;5.78;;;5.18;;
43801;SDS011;29429;51.074;13.764;2023-08-06T00:56:33;5.90;;;5.30;;
43801;SDS011;29429;51.074;13.764;2023-08-06T00:59:03;7.82;;;6.10;;
43801;SDS011;29429;51.074;13.764;2023-08-06T01:01:32;7.63;;;6.00;;
43801;SDS011;29429;51.074;13.764;2023-08-06T01:03:59;5.93;;;5.30;;
43801;SDS011;29429;51.074;13.764;2023-08-06T01:12:24;7.13;;;5.03;;
43801;SDS011;29429;51.074;13.764;2023-08-06T01:15:24;5.85;;;5.28;;
43801;SDS011;29429;51.074;13.764;2023-08-06T01:17:57;5.75;;;5.15;;
43801;SDS011;29429;51.074;13.764;2023-08-06T01:20:28;5.07;;;4.57;;
43801;SDS011;29429;51.074;13.764;2023-08-06T01:22:57;7.13;;;4.65;;
43801;SDS011;29429;51.074;13.764;2023-08-06T01:25:29;5.40;;;4.88;;
43801;SDS011;29429;51.074;13.764;2023-08-06T01:28:05;4.97;;;4.55;;
43801;SDS011;29429;51.074;13.764;2023-08-06T01:30:54;5.20;;;4.70;;
43801;SDS011;29429;51.074;13.764;2023-08-06T01:33:25;5.38;;;4.30;;
43801;SDS011;29429;51.074;13.764;2023-08-06T01:35:59;4.80;;;4.28;;
43801;SDS011;29429;51.074;13.764;2023-08-06T01:38:30;5.65;;;5.05;;
43801;SDS011;29429;51.074;13.764;2023-08-06T01:40:57;5.50;;;4.65;;
43801;SDS011;29429;51.074;13.764;2023-08-06T01:43:24;6.45;;;5.22;;
43801;SDS011;29429;51.074;13.764;2023-08-06T01:45:51;6.70;;;5.30;;
43801;SDS011;29429;51.074;13.764;2023-08-06T01:48:19;6.13;;;4.95;;
43801;SDS011;29429;51.074;13.764;2023-08-06T01:50:46;5.38;;;4.78;;
43801;SDS011;29429;51.074;13.764;2023-08-06T01:53:13;6.05;;;4.78;;
43801;SDS011;29429;51.074;13.764;2023-08-06T01:55:40;4.72;;;4.30;;
43801;SDS011;29429;51.074;13.764;2023-08-06T01:58:07;5.22;;;4.72;;
43801;SDS011;29429;51.074;13.764;2023-08-06T02:00:34;5.15;;;4.65;;
43801;SDS011;29429;51.074;13.764;2023-08-06T02:03:01;5.65;;;4.65;;
43801;SDS011;29429;51.074;13.764;2023-08-06T02:05:28;4.68;;;4.25;;
43801;SDS011;29429;51.074;13.764;2023-08-06T02:07:55;4.50;;;4.10;;
43801;SDS011;29429;51.074;13.764;2023-08-06T02:10:22;5.03;;;4.53;;
43801;SDS011;29429;51.074;13.764;2023-08-06T02:12:49;6.10;;;4.75;;
43801;SDS011;29429;51.074;13.764;2023-08-06T02:15:16;5.55;;;5.00;;
43801;SDS011;29429;51.074;13.764;2023-08-06T02:17:43;5.43;;;4.93;;
43801;SDS011;29429;51.074;13.764;2023-08-06T02:20:10;5.18;;;4.68;;
43801;SDS011;29429;51.074;13.764;2023-08-06T02:22:38;5.95;;;4.80;;
43801;SDS011;29429;51.074;13.764;2023-08-06T02:25:05;5.57;;;4.72;;
43801;SDS011;29429;51.074;13.764;2023-08-06T02:27:32;5.60;;;5.10;;
43801;SDS011;29429;51.074;13.764;2023-08-06T02:29:59;5.40;;;4.00;;
43801;SDS011;29429;51.074;13.764;2023-08-06T02:32:26;6.35;;;5.47;;
43801;SDS011;29429;51.074;13.764;2023-08-06T02:34:53;7.43;;;6.07;;
43801;SDS011;29429;51.074;13.764;2023-08-06T02:37:20;6.85;;;6.15;;
43801;SDS011;29429;51.074;13.764;2023-08-06T02:39:47;7.93;;;6.35;;
43801;SDS011;29429;51.074;13.764;2023-08-06T02:42:14;8.98;;;5.93;;
43801;SDS011;29429;51.074;13.764;2023-08-06T02:44:41;9.95;;;6.13;;
43801;SDS011;29429;51.074;13.764;2023-08-06T02:47:09;6.50;;;5.90;;
43801;SDS011;29429;51.074;13.764;2023-08-06T02:49:36;8.85;;;5.97;;
43801;SDS011;29429;51.074;13.764;2023-08-06T02:52:03;8.57;;;7.10;;
43801;SDS011;29429;51.074;13.764;2023-08-06T02:54:30;11.48;;;8.35;;
43801;SDS011;29429;51.074;13.764;2023-08-06T02:56:58;9.45;;;6.95;;
43801;SDS011;29429;51.074;13.764;2023-08-06T02:59:30;11.15;;;8.32;;
43801;SDS011;29429;51.074;13.764;2023-08-06T03:02:17;7.70;;;6.03;;
43801;SDS011;29429;51.074;13.764;2023-08-06T03:05:17;8.93;;;7.07;;
43801;SDS011;29429;51.074;13.764;2023-08-06T03:07:45;13.48;;;9.65;;
43801;SDS011;29429;51.074;13.764;2023-08-06T03:10:21;11.73;;;8.05;;
43801;SDS011;29429;51.074;13.764;2023-08-06T03:12:50;11.40;;;9.02;;
43801;SDS011;29429;51.074;13.764;2023-08-06T03:15:20;9.20;;;6.88;;
43801;SDS011;29429;51.074;13.764;2023-08-06T03:17:47;9.75;;;7.28;;
43801;SDS011;29429;51.074;13.764;2023-08-06T03:20:18;7.93;;;7.05;;
43801;SDS011;29429;51.074;13.764;2023-08-06T03:22:45;8.20;;;6.75;;
43801;SDS011;29429;51.074;13.764;2023-08-06T03:25:13;7.97;;;5.78;;
43801;SDS011;29429;51.074;13.764;2023-08-06T03:27:45;8.07;;;6.57;;
43801;SDS011;29429;51.074;13.764;2023-08-06T03:30:16;6.28;;;5.63;;
43801;SDS011;29429;51.074;13.764;2023-08-06T03:32:44;10.13;;;7.60;;
43801;SDS011;29429;51.074;13.764;2023-08-06T03:35:11;9.63;;;6.63;;
43801;SDS011;29429;51.074;13.764;2023-08-06T03:37:38;7.32;;;6.35;;
43801;SDS011;29429;51.074;13.764;2023-08-06T03:40:05;6.90;;;6.22;;
43801;SDS011;29429;51.074;13.764;2023-08-06T03:42:34;8.32;;;6.20;;
43801;SDS011;29429;51.074;13.764;2023-08-06T03:45:01;6.88;;;6.18;;
43801;SDS011;29429;51.074;13.764;2023-08-06T03:47:30;6.70;;;5.95;;
43801;SDS011;29429;51.074;13.764;2023-08-06T03:49:57;6.45;;;5.80;;
43801;SDS011;29429;51.074;13.764;2023-08-06T03:52:24;7.32;;;5.72;;
43801;SDS011;29429;51.074;13.764;2023-08-06T03:54:52;7.05;;;5.97;;
43801;SDS011;29429;51.074;13.764;2023-08-06T03:57:21;4.88;;;4.25;;
43801;SDS011;29429;51.074;13.764;2023-08-06T03:59:48;6.57;;;5.07;;
43801;SDS011;29429;51.074;13.764;2023-08-06T04:02:23;5.07;;;4.57;;
43801;SDS011;29429;51.074;13.764;2023-08-06T04:04:50;4.95;;;4.50;;
43801;SDS011;29429;51.074;13.764;2023-08-06T04:07:20;5.43;;;4.80;;
43801;SDS011;29429;51.074;13.764;2023-08-06T04:09:52;5.43;;;4.38;;
43801;SDS011;29429;51.074;13.764;2023-08-06T04:12:25;4.60;;;4.20;;
43801;SDS011;29429;51.074;13.764;2023-08-06T04:14:53;7.90;;;4.47;;
43801;SDS011;29429;51.074;13.764;2023-08-06T04:17:21;4.82;;;4.35;;
43801;SDS011;29429;51.074;13.764;2023-08-06T04:19:52;4.60;;;4.13;;
43801;SDS011;29429;51.074;13.764;2023-08-06T04:22:21;3.67;;;3.38;;
43801;SDS011;29429;51.074;13.764;2023-08-06T04:24:48;4.57;;;3.75;;
43801;SDS011;29429;51.074;13.764;2023-08-06T04:27:16;4.30;;;3.60;;
43801;SDS011;29429;51.074;13.764;2023-08-06T04:29:50;3.88;;;3.47;;
43801;SDS011;29429;51.074;13.764;2023-08-06T04:32:17;3.90;;;3.60;;
43801;SDS011;29429;51.074;13.764;2023-08-06T04:34:49;3.67;;;3.38;;
43801;SDS011;29429;51.074;13.764;2023-08-06T04:37:16;3.85;;;3.55;;
43801;SDS011;29429;51.074;13.764;2023-08-06T04:39:44;3.28;;;2.97;;
43801;SDS011;29429;51.074;13.764;2023-08-06T04:42:11;4.60;;;3.30;;
43801;SDS011;29429;51.074;13.764;2023-08-06T04:44:39;3.20;;;2.90;;
43801;SDS011;29429;51.074;13.764;2023-08-06T04:47:06;2.83;;;2.60;;
43801;SDS011;29429;51.074;13.764;2023-08-06T04:49:33;3.65;;;2.72;;
43801;SDS011;29429;51.074;13.764;2023-08-06T04:52:00;2.72;;;2.53;;
43801;SDS011;29429;51.074;13.764;2023-08-06T04:54:27;3.00;;;2.45;;
43801;SDS011;29429;51.074;13.764;2023-08-06T04:56:54;2.88;;;2.60;;
43801;SDS011;29429;51.074;13.764;2023-08-06T04:59:21;2.50;;;2.30;;
43801;SDS011;29429;51.074;13.764;2023-08-06T05:01:49;2.55;;;2.35;;
43801;SDS011;29429;51.074;13.764;2023-08-06T05:04:17;2.72;;;2.53;;
43801;SDS011;29429;51.074;13.764;2023-08-06T05:06:44;3.75;;;2.83;;
43801;SDS011;29429;51.074;13.764;2023-08-06T05:09:12;2.63;;;2.42;;
43801;SDS011;29429;51.074;13.764;2023-08-06T05:11:39;3.28;;;2.97;;
43801;SDS011;29429;51.074;13.764;2023-08-06T05:14:06;2.47;;;2.28;;
43801;SDS011;29429;51.074;13.764;2023-08-06T05:16:33;2.50;;;2.30;;
43801;SDS011;29429;51.074;13.764;2023-08-06T05:19:02;2.70;;;2.33;;
43801;SDS011;29429;51.074;13.764;2023-08-06T05:21:29;2.22;;;2.03;;
43801;SDS011;29429;51.074;13.764;2023-08-06T05:23:56;2.28;;;2.08;;
43801;SDS011;29429;51.074;13.764;2023-08-06T05:26:24;2.42;;;2.13;;
43801;SDS011;29429;51.074;13.764;2023-08-06T05:28:51;2.35;;;1.95;;
43801;SDS011;29429;51.074;13.764;2023-08-06T05:31:19;2.50;;;2.30;;
43801;SDS011;29429;51.074;13.764;2023-08-06T05:33:46;2.55;;;1.92;;
43801;SDS011;29429;51.074;13.764;2023-08-06T05:36:17;2.00;;;1.80;;
43801;SDS011;29429;51.074;13.764;2023-08-06T05:38:44;2.55;;;2.13;;
43801;SDS011;29429;51.074;13.764;2023-08-06T05:41:15;2.22;;;2.03;;
43801;SDS011;29429;51.074;13.764;2023-08-06T05:43:43;2.47;;;2.25;;
43801;SDS011;29429;51.074;13.764;2023-08-06T05:46:11;9.07;;;4.60;;
43801;SDS011;29429;51.074;13.764;2023-08-06T05:48:38;10.23;;;7.53;;
43801;SDS011;29429;51.074;13.764;2023-08-06T05:51:05;14.10;;;10.48;;
43801;SDS011;29429;51.074;13.764;2023-08-06T05:53:32;12.75;;;8.82;;
43801;SDS011;29429;51.074;13.764;2023-08-06T05:56:00;12.40;;;8.95;;
43801;SDS011;29429;51.074;13.764;2023-08-06T05:58:28;10.80;;;8.02;;
43801;SDS011;29429;51.074;13.764;2023-08-06T06:00:56;4.82;;;3.72;;
43801;SDS011;29429;51.074;13.764;2023-08-06T06:03:23;2.50;;;2.28;;
43801;SDS011;29429;51.074;13.764;2023-08-06T06:05:50;2.72;;;2.50;;
43801;SDS011;29429;51.074;13.764;2023-08-06T06:08:18;2.42;;;2.10;;
43801;SDS011;29429;51.074;13.764;2023-08-06T06:10:45;1.95;;;1.80;;
43801;SDS011;29429;51.074;13.764;2023-08-06T06:13:12;2.63;;;2.42;;
43801;SDS011;29429;51.074;13.764;2023-08-06T06:15:41;3.45;;;2.50;;
43801;SDS011;29429;51.074;13.764;2023-08-06T06:18:11;5.00;;;3.88;;
43801;SDS011;29429;51.074;13.764;2023-08-06T06:20:38;3.95;;;3.35;;
43801;SDS011;29429;51.074;13.764;2023-08-06T06:23:05;4.45;;;4.05;;
43801;SDS011;29429;51.074;13.764;2023-08-06T06:25:33;4.03;;;3.60;;
43801;SDS011;29429;51.074;13.764;2023-08-06T06:28:01;3.42;;;3.05;;
43801;SDS011;29429;51.074;13.764;2023-08-06T06:30:28;3.72;;;3.42;;
43801;SDS011;29429;51.074;13.764;2023-08-06T06:32:55;4.50;;;3.72;;
43801;SDS011;29429;51.074;13.764;2023-08-06T06:35:22;3.28;;;2.92;;
43801;SDS011;29429;51.074;13.764;2023-08-06T06:37:50;4.68;;;3.53;;
43801;SDS011;29429;51.074;13.764;2023-08-06T06:40:17;3.92;;;3.50;;
43801;SDS011;29429;51.074;13.764;2023-08-06T06:42:44;3.80;;;3.40;;
43801;SDS011;29429;51.074;13.764;2023-08-06T06:45:12;4.43;;;3.88;;
43801;SDS011;29429;51.074;13.764;2023-08-06T06:47:40;3.65;;;3.35;;
43801;SDS011;29429;51.074;13.764;2023-08-06T06:50:07;3.50;;;3.20;;
43801;SDS011;29429;51.074;13.764;2023-08-06T06:52:36;4.00;;;3.28;;
43801;SDS011;29429;51.074;13.764;2023-08-06T06:55:04;4.90;;;4.40;;
43801;SDS011;29429;51.074;13.764;2023-08-06T06:57:31;4.63;;;3.40;;
43801;SDS011;29429;51.074;13.764;2023-08-06T06:59:58;4.03;;;3.63;;
43801;SDS011;29429;51.074;13.764;2023-08-06T07:02:25;4.25;;;3.85;;
43801;SDS011;29429;51.074;13.764;2023-08-06T07:04:52;4.00;;;3.55;;
43801;SDS011;29429;51.074;13.764;2023-08-06T07:07:21;4.88;;;4.15;;
43801;SDS011;29429;51.074;13.764;2023-08-06T07:09:48;4.57;;;4.15;;
43801;SDS011;29429;51.074;13.764;2023-08-06T07:12:15;4.57;;;4.18;;
43801;SDS011;29429;51.074;13.764;2023-08-06T07:14:42;4.28;;;3.65;;
43801;SDS011;29429;51.074;13.764;2023-08-06T07:17:09;5.70;;;3.70;;
43801;SDS011;29429;51.074;13.764;2023-08-06T07:19:36;4.25;;;3.60;;
43801;SDS011;29429;51.074;13.764;2023-08-06T07:22:03;4.20;;;3.53;;
43801;SDS011;29429;51.074;13.764;2023-08-06T07:24:30;4.57;;;3.88;;
43801;SDS011;29429;51.074;13.764;2023-08-06T07:26:57;3.90;;;3.50;;
43801;SDS011;29429;51.074;13.764;2023-08-06T07:29:24;3.80;;;3.22;;
43801;SDS011;29429;51.074;13.764;2023-08-06T07:31:51;4.47;;;4.00;;
43801;SDS011;29429;51.074;13.764;2023-08-06T07:34:19;4.63;;;4.13;;
43801;SDS011;29429;51.074;13.764;2023-08-06T07:36:46;4.88;;;3.85;;
43801;SDS011;29429;51.074;13.764;2023-08-06T07:39:13;4.35;;;3.40;;
43801;SDS011;29429;51.074;13.764;2023-08-06T07:41:42;4.32;;;3.92;;
43801;SDS011;29429;51.074;13.764;2023-08-06T07:44:09;6.38;;;3.78;;
43801;SDS011;29429;51.074;13.764;2023-08-06T07:46:36;4.22;;;3.83;;
43801;SDS011;29429;51.074;13.764;2023-08-06T07:49:05;5.03;;;3.80;;
43801;SDS011;29429;51.074;13.764;2023-08-06T07:51:32;5.75;;;4.50;;
43801;SDS011;29429;51.074;13.764;2023-08-06T07:53:59;4.50;;;3.45;;
43801;SDS011;29429;51.074;13.764;2023-08-06T07:56:26;3.75;;;3.38;;
43801;SDS011;29429;51.074;13.764;2023-08-06T07:58:53;4.25;;;3.80;;
43801;SDS011;29429;51.074;13.764;2023-08-06T08:01:20;6.28;;;4.05;;
43801;SDS011;29429;51.074;13.764;2023-08-06T08:03:47;6.25;;;3.83;;
43801;SDS011;29429;51.074;13.764;2023-08-06T08:06:14;6.28;;;3.92;;
43801;SDS011;29429;51.074;13.764;2023-08-06T08:08:41;3.97;;;3.58;;
43801;SDS011;29429;51.074;13.764;2023-08-06T08:11:08;6.00;;;3.55;;
43801;SDS011;29429;51.074;13.764;2023-08-06T08:13:35;4.68;;;4.07;;
43801;SDS011;29429;51.074;13.764;2023-08-06T08:16:02;4.05;;;3.35;;
43801;SDS011;29429;51.074;13.764;2023-08-06T08:18:29;4.07;;;3.65;;
43801;SDS011;29429;51.074;13.764;2023-08-06T08:20:57;4.93;;;3.53;;
43801;SDS011;29429;51.074;13.764;2023-08-06T08:23:24;4.45;;;2.97;;
43801;SDS011;29429;51.074;13.764;2023-08-06T08:25:51;5.55;;;3.28;;
43801;SDS011;29429;51.074;13.764;2023-08-06T08:28:19;4.68;;;3.00;;
43801;SDS011;29429;51.074;13.764;2023-08-06T08:30:46;3.72;;;2.25;;
43801;SDS011;29429;51.074;13.764;2023-08-06T08:33:13;2.63;;;2.38;;
43801;SDS011;29429;51.074;13.764;2023-08-06T08:35:40;4.30;;;1.80;;
43801;SDS011;29429;51.074;13.764;2023-08-06T08:38:07;2.85;;;2.22;;
43801;SDS011;29429;51.074;13.764;2023-08-06T08:40:34;2.10;;;1.92;;
43801;SDS011;29429;51.074;13.764;2023-08-06T08:43:12;2.10;;;1.83;;
43801;SDS011;29429;51.074;13.764;2023-08-06T08:45:42;2.30;;;1.90;;
43801;SDS011;29429;51.074;13.764;2023-08-06T08:48:12;2.65;;;2.17;;
43801;SDS011;29429;51.074;13.764;2023-08-06T08:50:40;2.90;;;2.05;;
43801;SDS011;29429;51.074;13.764;2023-08-06T08:53:13;2.20;;;1.92;;
43801;SDS011;29429;51.074;13.764;2023-08-06T08:55:42;2.95;;;2.05;;
43801;SDS011;29429;51.074;13.764;2023-08-06T08:58:15;3.08;;;1.95;;
43801;SDS011;29429;51.074;13.764;2023-08-06T09:00:43;2.85;;;1.77;;
43801;SDS011;29429;51.074;13.764;2023-08-06T09:03:14;3.67;;;1.83;;
43801;SDS011;29429;51.074;13.764;2023-08-06T09:05:44;1.60;;;1.50;;
43801;SDS011;29429;51.074;13.764;2023-08-06T09:08:15;2.45;;;1.80;;
43801;SDS011;29429;51.074;13.764;2023-08-06T09:10:48;2.05;;;1.52;;
43801;SDS011;29429;51.074;13.764;2023-08-06T09:13:16;1.60;;;1.50;;
43801;SDS011;29429;51.074;13.764;2023-08-06T09:15:43;2.00;;;1.80;;
43801;SDS011;29429;51.074;13.764;2023-08-06T09:18:11;2.35;;;1.90;;
43801;SDS011;29429;51.074;13.764;2023-08-06T09:20:39;1.90;;;1.67;;
43801;SDS011;29429;51.074;13.764;2023-08-06T09:23:09;2.35;;;2.05;;
43801;SDS011;29429;51.074;13.764;2023-08-06T09:25:40;3.42;;;1.85;;
43801;SDS011;29429;51.074;13.764;2023-08-06T09:28:07;2.78;;;1.70;;
43801;SDS011;29429;51.074;13.764;2023-08-06T09:30:36;3.47;;;2.00;;
43801;SDS011;29429;51.074;13.764;2023-08-06T09:33:08;3.38;;;1.90;;
43801;SDS011;29429;51.074;13.764;2023-08-06T09:35:40;2.72;;;2.20;;
43801;SDS011;29429;51.074;13.764;2023-08-06T09:38:08;2.22;;;1.90;;
43801;SDS011;29429;51.074;13.764;2023-08-06T09:40:37;6.85;;;1.75;;
43801;SDS011;29429;51.074;13.764;2023-08-06T09:43:05;2.38;;;2.17;;
43801;SDS011;29429;51.074;13.764;2023-08-06T09:45:34;2.92;;;2.08;;
43801;SDS011;29429;51.074;13.764;2023-08-06T09:48:08;3.35;;;2.50;;
43801;SDS011;29429;51.074;13.764;2023-08-06T09:50:36;3.28;;;2.25;;
43801;SDS011;29429;51.074;13.764;2023-08-06T09:53:06;2.55;;;2.25;;
43801;SDS011;29429;51.074;13.764;2023-08-06T09:55:35;3.28;;;2.10;;
43801;SDS011;29429;51.074;13.764;2023-08-06T09:58:02;5.22;;;2.70;;
43801;SDS011;29429;51.074;13.764;2023-08-06T10:00:30;3.15;;;2.03;;
43801;SDS011;29429;51.074;13.764;2023-08-06T10:03:02;2.92;;;2.10;;
43801;SDS011;29429;51.074;13.764;2023-08-06T10:05:31;4.50;;;2.45;;
43801;SDS011;29429;51.074;13.764;2023-08-06T10:08:00;3.80;;;2.60;;
43801;SDS011;29429;51.074;13.764;2023-08-06T10:10:30;3.33;;;2.22;;
43801;SDS011;29429;51.074;13.764;2023-08-06T10:12:58;2.72;;;2.20;;
43801;SDS011;29429;51.074;13.764;2023-08-06T10:15:28;2.50;;;2.30;;
43801;SDS011;29429;51.074;13.764;2023-08-06T10:17:58;2.40;;;2.20;;
43801;SDS011;29429;51.074;13.764;2023-08-06T10:20:32;3.40;;;2.58;;
43801;SDS011;29429;51.074;13.764;2023-08-06T10:23:04;2.63;;;2.30;;
43801;SDS011;29429;51.074;13.764;2023-08-06T10:25:34;2.40;;;2.20;;
43801;SDS011;29429;51.074;13.764;2023-08-06T10:28:07;2.75;;;2.35;;
43801;SDS011;29429;51.074;13.764;2023-08-06T10:30:43;2.42;;;1.98;;
43801;SDS011;29429;51.074;13.764;2023-08-06T10:33:13;2.83;;;2.42;;
43801;SDS011;29429;51.074;13.764;2023-08-06T10:35:46;2.13;;;1.90;;
43801;SDS011;29429;51.074;13.764;2023-08-06T10:38:21;5.13;;;2.40;;
43801;SDS011;29429;51.074;13.764;2023-08-06T10:41:03;3.17;;;2.08;;
43801;SDS011;29429;51.074;13.764;2023-08-06T10:46:09;4.57;;;2.30;;
43801;SDS011;29429;51.074;13.764;2023-08-06T10:48:57;2.63;;;2.38;;
43801;SDS011;29429;51.074;13.764;2023-08-06T10:51:24;2.88;;;2.03;;
43801;SDS011;29429;51.074;13.764;2023-08-06T10:53:52;3.35;;;2.22;;
43801;SDS011;29429;51.074;13.764;2023-08-06T10:56:20;2.70;;;2.10;;
43801;SDS011;29429;51.074;13.764;2023-08-06T10:58:55;2.78;;;2.08;;
43801;SDS011;29429;51.074;13.764;2023-08-06T11:01:23;2.83;;;1.90;;
43801;SDS011;29429;51.074;13.764;2023-08-06T11:03:55;2.10;;;1.90;;
43801;SDS011;29429;51.074;13.764;2023-08-06T11:06:30;2.97;;;1.80;;
43801;SDS011;29429;51.074;13.764;2023-08-06T11:08:57;2.55;;;2.22;;
43801;SDS011;29429;51.074;13.764;2023-08-06T11:11:27;2.60;;;2.00;;
43801;SDS011;29429;51.074;13.764;2023-08-06T11:13:55;2.95;;;2.10;;
43801;SDS011;29429;51.074;13.764;2023-08-06T11:16:23;2.65;;;1.75;;
43801;SDS011;29429;51.074;13.764;2023-08-06T11:18:53;2.60;;;2.08;;
43801;SDS011;29429;51.074;13.764;2023-08-06T11:21:23;2.45;;;2.05;;
43801;SDS011;29429;51.074;13.764;2023-08-06T11:23:51;1.85;;;1.50;;
43801;SDS011;29429;51.074;13.764;2023-08-06T11:26:20;2.47;;;1.80;;
43801;SDS011;29429;51.074;13.764;2023-08-06T11:28:50;2.42;;;1.52;;
43801;SDS011;29429;51.074;13.764;2023-08-06T11:31:20;2.25;;;1.80;;
43801;SDS011;29429;51.074;13.764;2023-08-06T11:33:51;1.98;;;1.80;;
43801;SDS011;29429;51.074;13.764;2023-08-06T11:36:29;3.88;;;1.77;;
43801;SDS011;29429;51.074;13.764;2023-08-06T11:38:58;2.47;;;2.10;;
43801;SDS011;29429;51.074;13.764;2023-08-06T11:41:30;3.45;;;1.80;;
43801;SDS011;29429;51.074;13.764;2023-08-06T11:43:59;2.85;;;1.58;;
43801;SDS011;29429;51.074;13.764;2023-08-06T11:46:29;1.90;;;1.70;;
43801;SDS011;29429;51.074;13.764;2023-08-06T11:49:41;2.20;;;2.00;;
43801;SDS011;29429;51.074;13.764;2023-08-06T11:52:14;2.80;;;2.00;;
43801;SDS011;29429;51.074;13.764;2023-08-06T11:55:03;2.08;;;1.88;;
43801;SDS011;29429;51.074;13.764;2023-08-06T11:57:44;1.75;;;1.55;;
43801;SDS011;29429;51.074;13.764;2023-08-06T12:00:17;1.70;;;1.45;;
43801;SDS011;29429;51.074;13.764;2023-08-06T12:02:49;2.70;;;2.00;;
43801;SDS011;29429;51.074;13.764;2023-08-06T12:05:31;1.80;;;1.60;;
43801;SDS011;29429;51.074;13.764;2023-08-06T12:08:05;4.22;;;1.52;;
43801;SDS011;29429;51.074;13.764;2023-08-06T12:10:32;2.67;;;1.48;;
43801;SDS011;29429;51.074;13.764;2023-08-06T12:13:16;2.97;;;1.63;;
43801;SDS011;29429;51.074;13.764;2023-08-06T12:15:43;2.03;;;1.70;;
43801;SDS011;29429;51.074;13.764;2023-08-06T12:18:13;1.98;;;1.58;;
43801;SDS011;29429;51.074;13.764;2023-08-06T12:21:06;2.20;;;1.50;;
43801;SDS011;29429;51.074;13.764;2023-08-06T12:23:38;2.15;;;1.83;;
43801;SDS011;29429;51.074;13.764;2023-08-06T12:26:13;4.07;;;2.05;;
43801;SDS011;29429;51.074;13.764;2023-08-06T12:28:41;3.65;;;1.83;;
43801;SDS011;29429;51.074;13.764;2023-08-06T12:31:12;1.90;;;1.73;;
43801;SDS011;29429;51.074;13.764;2023-08-06T12:33:39;2.90;;;1.60;;
43801;SDS011;29429;51.074;13.764;2023-08-06T12:36:06;3.15;;;1.70;;
43801;SDS011;29429;51.074;13.764;2023-08-06T12:38:34;2.30;;;1.80;;
43801;SDS011;29429;51.074;13.764;2023-08-06T12:41:13;2.80;;;1.98;;
43801;SDS011;29429;51.074;13.764;2023-08-06T12:43:40;2.38;;;1.83;;
43801;SDS011;29429;51.074;13.764;2023-08-06T12:46:10;2.33;;;2.13;;
43801;SDS011;29429;51.074;13.764;2023-08-06T12:48:41;3.72;;;1.90;;
43801;SDS011;29429;51.074;13.764;2023-08-06T12:51:09;2.75;;;1.77;;
43801;SDS011;29429;51.074;13.764;2023-08-06T12:53:37;2.30;;;1.83;;
43801;SDS011;29429;51.074;13.764;2023-08-06T12:56:11;4.10;;;1.90;;
43801;SDS011;29429;51.074;13.764;2023-08-06T12:58:48;2.17;;;1.60;;
43801;SDS011;29429;51.074;13.764;2023-08-06T13:04:35;1.90;;;1.70;;
43801;SDS011;29429;51.074;13.764;2023-08-06T13:07:06;2.10;;;1.90;;
43801;SDS011;29429;51.074;13.764;2023-08-06T13:09:53;2.22;;;1.73;;
43801;SDS011;29429;51.074;13.764;2023-08-06T13:12:20;1.60;;;1.45;;
43801;SDS011;29429;51.074;13.764;2023-08-06T13:14:49;1.80;;;1.50;;
43801;SDS011;29429;51.074;13.764;2023-08-06T13:17:19;2.70;;;1.60;;
43801;SDS011;29429;51.074;13.764;2023-08-06T13:19:46;1.83;;;1.67;;
43801;SDS011;29429;51.074;13.764;2023-08-06T13:22:23;2.00;;;1.30;;
43801;SDS011;29429;51.074;13.764;2023-08-06T13:24:50;3.15;;;1.73;;
43801;SDS011;29429;51.074;13.764;2023-08-06T13:27:20;2.25;;;1.70;;
43801;SDS011;29429;51.074;13.764;2023-08-06T13:30:10;1.70;;;1.50;;
43801;SDS011;29429;51.074;13.764;2023-08-06T13:33:19;4.55;;;1.60;;
43801;SDS011;29429;51.074;13.764;2023-08-06T13:35:52;2.03;;;1.60;;
43801;SDS011;29429;51.074;13.764;2023-08-06T13:38:31;2.25;;;1.40;;
43801;SDS011;29429;51.074;13.764;2023-08-06T13:41:10;1.73;;;1.30;;
43801;SDS011;29429;51.074;13.764;2023-08-06T13:44:27;1.52;;;1.42;;
43801;SDS011;29429;51.074;13.764;2023-08-06T13:46:55;1.27;;;1.10;;
43801;SDS011;29429;51.074;13.764;2023-08-06T13:49:23;2.35;;;1.30;;
43801;SDS011;29429;51.074;13.764;2023-08-06T13:52:07;2.43;;;1.40;;
43801;SDS011;29429;51.074;13.764;2023-08-06T13:54:46;1.50;;;1.40;;
43801;SDS011;29429;51.074;13.764;2023-08-06T13:57:14;2.35;;;1.63;;
43801;SDS011;29429;51.074;13.764;2023-08-06T13:59:53;1.65;;;1.48;;
43801;SDS011;29429;51.074;13.764;2023-08-06T14:02:22;3.03;;;1.50;;
43801;SDS011;29429;51.074;13.764;2023-08-06T14:04:50;3.45;;;1.60;;
43801;SDS011;29429;51.074;13.764;2023-08-06T14:07:21;2.97;;;1.88;;
43801;SDS011;29429;51.074;13.764;2023-08-06T14:09:49;2.28;;;1.65;;
43801;SDS011;29429;51.074;13.764;2023-08-06T14:12:16;1.80;;;1.40;;
43801;SDS011;29429;51.074;13.764;2023-08-06T14:14:44;2.75;;;1.60;;
43801;SDS011;29429;51.074;13.764;2023-08-06T14:17:11;2.08;;;1.58;;
43801;SDS011;29429;51.074;13.764;2023-08-06T14:19:38;1.88;;;1.77;;
43801;SDS011;29429;51.074;13.764;2023-08-06T14:22:08;2.33;;;2.00;;
43801;SDS011;29429;51.074;13.764;2023-08-06T14:24:35;2.00;;;1.80;;
43801;SDS011;29429;51.074;13.764;2023-08-06T14:27:07;1.98;;;1.70;;
43801;SDS011;29429;51.074;13.764;2023-08-06T14:29:47;2.53;;;1.80;;
43801;SDS011;29429;51.074;13.764;2023-08-06T14:32:15;1.52;;;1.42;;
43801;SDS011;29429;51.074;13.764;2023-08-06T14:34:45;2.08;;;1.70;;
43801;SDS011;29429;51.074;13.764;2023-08-06T14:37:13;1.88;;;1.67;;
43801;SDS011;29429;51.074;13.764;2023-08-06T14:39:40;2.38;;;2.08;;
43801;SDS011;29429;51.074;13.764;2023-08-06T14:42:07;2.53;;;1.65;;
43801;SDS011;29429;51.074;13.764;2023-08-06T14:44:38;1.88;;;1.70;;
43801;SDS011;29429;51.074;13.764;2023-08-06T14:47:08;1.98;;;1.60;;
43801;SDS011;29429;51.074;13.764;2023-08-06T14:49:35;2.55;;;2.17;;
43801;SDS011;29429;51.074;13.764;2023-08-06T14:52:05;2.20;;;2.00;;
43801;SDS011;29429;51.074;13.764;2023-08-06T14:54:34;1.98;;;1.80;;
43801;SDS011;29429;51.074;13.764;2023-08-06T14:57:01;2.15;;;1.95;;
43801;SDS011;29429;51.074;13.764;2023-08-06T15:00:03;2.25;;;2.08;;
43801;SDS011;29429;51.074;13.764;2023-08-06T15:02:43;3.88;;;1.80;;